sensor_id;sensor_type;location;lat;lon;timestamp;temperature;humidity
18690;DHT22;9782;52.930;15.562;2022-10-16T00:01:31;13.90;99.90
18690;DHT22;9782;52.930;15.562;2022-10-16T00:04:06;13.90;99.90
18690;DHT22;9782;52.930;15.562;2022-10-16T00:06:41;13.90;99.90
18690;DHT22;9782;52.930;15.562;2022-10-16T00:09:15;13.90;99.90
18690;DHT22;9782;52.930;15.562;2022-10-16T00:11:46;13.90;1.00
18690;DHT22;9782;52.930;15.562;2022-10-16T00:14:23;13.90;99.90
18690;DHT22;9782;52.930;15.562;2022-10-16T00:16:56;13.90;99.90
18690;DHT22;9782;52.930;15.562;2022-10-16T00:19:23;13.90;99.90
18690;DHT22;9782;52.930;15.562;2022-10-16T00:21:51;14.00;99.90
18690;DHT22;9782;52.930;15.562;2022-10-16T00:24:18;13.90;99.90
18690;DHT22;9782;52.930;15.562;2022-10-16T00:26:45;14.00;99.90
18690;DHT22;9782;52.930;15.562;2022-10-16T00:29:19;14.00;99.90
18690;DHT22;9782;52.930;15.562;2022-10-16T00:31:52;13.90;99.90
18690;DHT22;9782;52.930;15.562;2022-10-16T00:34:23;13.90;99.90
18690;DHT22;9782;52.930;15.562;2022-10-16T00:36:56;13.90;99.90
18690;DHT22;9782;52.930;15.562;2022-10-16T00:39:25;14.00;99.90
18690;DHT22;9782;52.930;15.562;2022-10-16T00:44:49;14.00;99.90
18690;DHT22;9782;52.930;15.562;2022-10-16T00:47:21;14.00;1.00
18690;DHT22;9782;52.930;15.562;2022-10-16T00:49:51;14.00;99.90
18690;DHT22;9782;52.930;15.562;2022-10-16T00:52:21;14.00;1.00
18690;DHT22;9782;52.930;15.562;2022-10-16T00:54:49;13.90;99.90
18690;DHT22;9782;52.930;15.562;2022-10-16T00:57:17;13.90;99.90
18690;DHT22;9782;52.930;15.562;2022-10-16T00:59:44;14.00;99.90
18690;DHT22;9782;52.930;15.562;2022-10-16T01:02:13;13.90;99.90
18690;DHT22;9782;52.930;15.562;2022-10-16T01:04:43;14.00;99.90
18690;DHT22;9782;52.930;15.562;2022-10-16T01:07:16;14.00;99.90
18690;DHT22;9782;52.930;15.562;2022-10-16T01:09:57;14.00;99.90
18690;DHT22;9782;52.930;15.562;2022-10-16T01:12:33;14.00;1.00
18690;DHT22;9782;52.930;15.562;2022-10-16T01:15:10;14.00;1.00
18690;DHT22;9782;52.930;15.562;2022-10-16T01:17:43;14.00;1.00
18690;DHT22;9782;52.930;15.562;2022-10-16T01:20:19;14.00;1.00
18690;DHT22;9782;52.930;15.562;2022-10-16T01:23:04;14.00;1.00
18690;DHT22;9782;52.930;15.562;2022-10-16T01:25:47;14.00;99.90
18690;DHT22;9782;52.930;15.562;2022-10-16T01:28:19;14.00;1.00
18690;DHT22;9782;52.930;15.562;2022-10-16T01:30:50;14.00;1.00
18690;DHT22;9782;52.930;15.562;2022-10-16T01:33:22;14.00;1.00
18690;DHT22;9782;52.930;15.562;2022-10-16T01:35:53;14.00;1.00
18690;DHT22;9782;52.930;15.562;2022-10-16T01:38:26;14.00;99.90
18690;DHT22;9782;52.930;15.562;2022-10-16T01:41:01;14.00;99.90
18690;DHT22;9782;52.930;15.562;2022-10-16T01:43:35;14.00;1.00
18690;DHT22;9782;52.930;15.562;2022-10-16T01:46:03;14.00;1.00
18690;DHT22;9782;52.930;15.562;2022-10-16T01:48:31;14.10;1.00
18690;DHT22;9782;52.930;15.562;2022-10-16T01:51:04;14.00;1.00
18690;DHT22;9782;52.930;15.562;2022-10-16T01:53:33;14.00;1.00
18690;DHT22;9782;52.930;15.562;2022-10-16T01:56:00;14.00;1.00
18690;DHT22;9782;52.930;15.562;2022-10-16T01:58:31;14.00;1.00
18690;DHT22;9782;52.930;15.562;2022-10-16T02:01:02;14.10;1.00
18690;DHT22;9782;52.930;15.562;2022-10-16T02:03:30;14.00;1.00
18690;DHT22;9782;52.930;15.562;2022-10-16T02:05:59;14.10;1.00
18690;DHT22;9782;52.930;15.562;2022-10-16T02:08:28;14.10;1.00
18690;DHT22;9782;52.930;15.562;2022-10-16T02:10:57;14.10;1.00
18690;DHT22;9782;52.930;15.562;2022-10-16T02:13:28;14.00;1.00
18690;DHT22;9782;52.930;15.562;2022-10-16T02:15:58;14.10;1.00
18690;DHT22;9782;52.930;15.562;2022-10-16T02:18:26;14.10;1.00
18690;DHT22;9782;52.930;15.562;2022-10-16T02:20:58;14.10;1.00
18690;DHT22;9782;52.930;15.562;2022-10-16T02:23:32;14.10;1.00
18690;DHT22;9782;52.930;15.562;2022-10-16T02:26:04;14.10;1.00
18690;DHT22;9782;52.930;15.562;2022-10-16T02:28:37;14.10;1.00
18690;DHT22;9782;52.930;15.562;2022-10-16T02:31:10;14.10;1.00
18690;DHT22;9782;52.930;15.562;2022-10-16T02:33:39;14.10;1.00
18690;DHT22;9782;52.930;15.562;2022-10-16T02:36:07;14.10;1.00
18690;DHT22;9782;52.930;15.562;2022-10-16T02:38:35;14.10;1.00
18690;DHT22;9782;52.930;15.562;2022-10-16T02:41:06;14.10;1.00
18690;DHT22;9782;52.930;15.562;2022-10-16T02:43:33;14.10;1.00
18690;DHT22;9782;52.930;15.562;2022-10-16T02:46:00;14.10;1.00
18690;DHT22;9782;52.930;15.562;2022-10-16T02:48:29;14.10;1.00
18690;DHT22;9782;52.930;15.562;2022-10-16T02:50:56;14.10;1.00
18690;DHT22;9782;52.930;15.562;2022-10-16T02:53:23;14.00;99.90
18690;DHT22;9782;52.930;15.562;2022-10-16T02:55:50;14.00;1.00
18690;DHT22;9782;52.930;15.562;2022-10-16T02:58:17;13.90;1.00
18690;DHT22;9782;52.930;15.562;2022-10-16T03:00:44;14.00;1.00
18690;DHT22;9782;52.930;15.562;2022-10-16T03:03:11;13.90;99.90
18690;DHT22;9782;52.930;15.562;2022-10-16T03:05:39;13.90;99.90
18690;DHT22;9782;52.930;15.562;2022-10-16T03:08:07;13.90;99.90
18690;DHT22;9782;52.930;15.562;2022-10-16T03:10:34;13.80;99.90
18690;DHT22;9782;52.930;15.562;2022-10-16T03:13:01;13.80;99.90
18690;DHT22;9782;52.930;15.562;2022-10-16T03:15:28;13.70;99.90
18690;DHT22;9782;52.930;15.562;2022-10-16T03:17:57;13.70;99.90
18690;DHT22;9782;52.930;15.562;2022-10-16T03:20:24;13.70;1.00
18690;DHT22;9782;52.930;15.562;2022-10-16T03:22:53;13.70;1.00
18690;DHT22;9782;52.930;15.562;2022-10-16T03:25:20;13.60;99.90
18690;DHT22;9782;52.930;15.562;2022-10-16T03:27:47;13.60;99.90
18690;DHT22;9782;52.930;15.562;2022-10-16T03:30:14;13.60;1.00
18690;DHT22;9782;52.930;15.562;2022-10-16T03:32:42;13.60;1.00
18690;DHT22;9782;52.930;15.562;2022-10-16T03:35:10;13.60;1.00
18690;DHT22;9782;52.930;15.562;2022-10-16T03:37:37;13.50;1.00
18690;DHT22;9782;52.930;15.562;2022-10-16T03:40:06;13.50;1.00
18690;DHT22;9782;52.930;15.562;2022-10-16T03:42:33;13.50;1.00
18690;DHT22;9782;52.930;15.562;2022-10-16T03:45:00;13.50;1.00
18690;DHT22;9782;52.930;15.562;2022-10-16T03:47:28;13.50;1.00
18690;DHT22;9782;52.930;15.562;2022-10-16T03:49:55;13.50;1.00
18690;DHT22;9782;52.930;15.562;2022-10-16T03:52:22;13.50;1.00
18690;DHT22;9782;52.930;15.562;2022-10-16T03:54:49;13.40;1.00
18690;DHT22;9782;52.930;15.562;2022-10-16T03:57:17;13.40;1.00
18690;DHT22;9782;52.930;15.562;2022-10-16T03:59:46;13.40;1.00
18690;DHT22;9782;52.930;15.562;2022-10-16T04:02:13;13.40;1.00
18690;DHT22;9782;52.930;15.562;2022-10-16T04:04:40;13.40;1.00
18690;DHT22;9782;52.930;15.562;2022-10-16T04:07:07;13.40;1.00
18690;DHT22;9782;52.930;15.562;2022-10-16T04:09:35;13.40;1.00
18690;DHT22;9782;52.930;15.562;2022-10-16T04:12:02;13.40;1.00
18690;DHT22;9782;52.930;15.562;2022-10-16T04:14:30;13.30;1.00
18690;DHT22;9782;52.930;15.562;2022-10-16T04:16:57;13.30;1.00
18690;DHT22;9782;52.930;15.562;2022-10-16T04:19:25;13.30;1.00
18690;DHT22;9782;52.930;15.562;2022-10-16T04:21:52;13.30;1.00
18690;DHT22;9782;52.930;15.562;2022-10-16T04:24:19;13.30;1.00
18690;DHT22;9782;52.930;15.562;2022-10-16T04:26:46;13.20;1.00
18690;DHT22;9782;52.930;15.562;2022-10-16T04:29:13;13.20;1.00
18690;DHT22;9782;52.930;15.562;2022-10-16T04:31:41;13.20;1.00
18690;DHT22;9782;52.930;15.562;2022-10-16T04:34:08;13.20;1.00
18690;DHT22;9782;52.930;15.562;2022-10-16T04:36:35;13.20;1.00
18690;DHT22;9782;52.930;15.562;2022-10-16T04:39:03;13.20;1.00
18690;DHT22;9782;52.930;15.562;2022-10-16T04:41:30;13.10;1.00
18690;DHT22;9782;52.930;15.562;2022-10-16T04:43:57;13.20;1.00
18690;DHT22;9782;52.930;15.562;2022-10-16T04:46:24;13.10;1.00
18690;DHT22;9782;52.930;15.562;2022-10-16T04:48:52;13.20;1.00
18690;DHT22;9782;52.930;15.562;2022-10-16T04:51:19;13.20;1.00
18690;DHT22;9782;52.930;15.562;2022-10-16T04:53:46;13.20;1.00
18690;DHT22;9782;52.930;15.562;2022-10-16T04:56:13;13.20;1.00
18690;DHT22;9782;52.930;15.562;2022-10-16T04:58:41;13.30;1.00
18690;DHT22;9782;52.930;15.562;2022-10-16T05:01:08;13.30;1.00
18690;DHT22;9782;52.930;15.562;2022-10-16T05:03:35;13.30;1.00
18690;DHT22;9782;52.930;15.562;2022-10-16T05:06:05;13.30;1.00
18690;DHT22;9782;52.930;15.562;2022-10-16T05:08:32;13.30;1.00
18690;DHT22;9782;52.930;15.562;2022-10-16T05:10:59;13.40;1.00
18690;DHT22;9782;52.930;15.562;2022-10-16T05:13:27;13.40;1.00
18690;DHT22;9782;52.930;15.562;2022-10-16T05:15:54;13.40;1.00
18690;DHT22;9782;52.930;15.562;2022-10-16T05:18:21;13.40;1.00
18690;DHT22;9782;52.930;15.562;2022-10-16T05:20:48;13.40;1.00
18690;DHT22;9782;52.930;15.562;2022-10-16T05:23:16;13.40;1.00
18690;DHT22;9782;52.930;15.562;2022-10-16T05:25:43;13.40;1.00
18690;DHT22;9782;52.930;15.562;2022-10-16T05:28:18;13.40;1.00
18690;DHT22;9782;52.930;15.562;2022-10-16T05:30:45;13.40;1.00
18690;DHT22;9782;52.930;15.562;2022-10-16T05:33:12;13.40;1.00
18690;DHT22;9782;52.930;15.562;2022-10-16T05:35:39;13.40;1.00
18690;DHT22;9782;52.930;15.562;2022-10-16T05:38:06;13.40;1.00
18690;DHT22;9782;52.930;15.562;2022-10-16T05:40:35;13.50;1.00
18690;DHT22;9782;52.930;15.562;2022-10-16T05:43:02;13.50;1.00
18690;DHT22;9782;52.930;15.562;2022-10-16T05:45:29;13.50;1.00
18690;DHT22;9782;52.930;15.562;2022-10-16T05:47:56;13.50;1.00
18690;DHT22;9782;52.930;15.562;2022-10-16T05:50:23;13.50;1.00
18690;DHT22;9782;52.930;15.562;2022-10-16T05:52:55;13.60;1.00
18690;DHT22;9782;52.930;15.562;2022-10-16T05:55:23;13.60;1.00
18690;DHT22;9782;52.930;15.562;2022-10-16T05:58:02;13.60;1.00
18690;DHT22;9782;52.930;15.562;2022-10-16T06:00:29;13.60;1.00
18690;DHT22;9782;52.930;15.562;2022-10-16T06:02:57;13.60;1.00
18690;DHT22;9782;52.930;15.562;2022-10-16T06:05:38;13.60;1.00
18690;DHT22;9782;52.930;15.562;2022-10-16T06:08:13;13.60;1.00
18690;DHT22;9782;52.930;15.562;2022-10-16T06:10:43;13.70;1.00
18690;DHT22;9782;52.930;15.562;2022-10-16T06:13:18;13.70;1.00
18690;DHT22;9782;52.930;15.562;2022-10-16T06:15:49;13.70;1.00
18690;DHT22;9782;52.930;15.562;2022-10-16T06:18:41;13.70;1.00
18690;DHT22;9782;52.930;15.562;2022-10-16T06:21:11;13.80;1.00
18690;DHT22;9782;52.930;15.562;2022-10-16T06:23:38;13.80;1.00
18690;DHT22;9782;52.930;15.562;2022-10-16T06:26:06;13.90;1.00
18690;DHT22;9782;52.930;15.562;2022-10-16T06:28:38;13.90;1.00
18690;DHT22;9782;52.930;15.562;2022-10-16T06:31:10;14.00;1.00
18690;DHT22;9782;52.930;15.562;2022-10-16T06:33:37;14.10;1.00
18690;DHT22;9782;52.930;15.562;2022-10-16T06:36:07;14.20;1.00
18690;DHT22;9782;52.930;15.562;2022-10-16T06:38:38;14.20;1.00
18690;DHT22;9782;52.930;15.562;2022-10-16T06:41:10;14.30;1.00
18690;DHT22;9782;52.930;15.562;2022-10-16T06:43:41;14.40;1.00
18690;DHT22;9782;52.930;15.562;2022-10-16T06:46:17;14.50;1.00
18690;DHT22;9782;52.930;15.562;2022-10-16T06:48:59;14.50;1.00
18690;DHT22;9782;52.930;15.562;2022-10-16T06:51:26;14.60;1.00
18690;DHT22;9782;52.930;15.562;2022-10-16T06:53:54;14.60;1.00
18690;DHT22;9782;52.930;15.562;2022-10-16T06:59:14;14.70;1.00
18690;DHT22;9782;52.930;15.562;2022-10-16T07:01:42;14.70;1.00
18690;DHT22;9782;52.930;15.562;2022-10-16T07:04:09;14.80;1.00
18690;DHT22;9782;52.930;15.562;2022-10-16T07:06:37;14.80;1.00
18690;DHT22;9782;52.930;15.562;2022-10-16T07:09:06;14.90;1.00
18690;DHT22;9782;52.930;15.562;2022-10-16T07:11:37;14.90;1.00
18690;DHT22;9782;52.930;15.562;2022-10-16T07:14:05;15.00;1.00
18690;DHT22;9782;52.930;15.562;2022-10-16T07:16:34;15.10;1.00
18690;DHT22;9782;52.930;15.562;2022-10-16T07:19:02;15.30;1.00
18690;DHT22;9782;52.930;15.562;2022-10-16T07:21:31;15.40;1.00
18690;DHT22;9782;52.930;15.562;2022-10-16T07:24:06;15.60;1.00
18690;DHT22;9782;52.930;15.562;2022-10-16T07:26:38;15.80;1.00
18690;DHT22;9782;52.930;15.562;2022-10-16T07:29:07;16.10;1.00
18690;DHT22;9782;52.930;15.562;2022-10-16T07:31:36;16.40;1.00
18690;DHT22;9782;52.930;15.562;2022-10-16T07:34:04;16.80;1.00
18690;DHT22;9782;52.930;15.562;2022-10-16T07:36:31;17.30;1.00
18690;DHT22;9782;52.930;15.562;2022-10-16T07:38:58;18.00;1.00
18690;DHT22;9782;52.930;15.562;2022-10-16T07:41:24;18.80;1.00
18690;DHT22;9782;52.930;15.562;2022-10-16T07:43:52;19.60;1.00
18690;DHT22;9782;52.930;15.562;2022-10-16T07:46:20;20.30;1.00
18690;DHT22;9782;52.930;15.562;2022-10-16T07:48:49;21.00;1.00
18690;DHT22;9782;52.930;15.562;2022-10-16T07:51:34;21.70;1.00
18690;DHT22;9782;52.930;15.562;2022-10-16T07:54:17;22.20;1.00
18690;DHT22;9782;52.930;15.562;2022-10-16T07:56:44;22.40;1.00
18690;DHT22;9782;52.930;15.562;2022-10-16T07:59:17;22.90;99.90
18690;DHT22;9782;52.930;15.562;2022-10-16T08:02:08;23.70;1.00
18690;DHT22;9782;52.930;15.562;2022-10-16T08:11:26;26.30;1.00
18690;DHT22;9782;52.930;15.562;2022-10-16T08:14:08;25.80;1.00
18690;DHT22;9782;52.930;15.562;2022-10-16T08:16:35;25.00;99.90
18690;DHT22;9782;52.930;15.562;2022-10-16T08:19:04;24.90;1.00
18690;DHT22;9782;52.930;15.562;2022-10-16T08:21:31;25.30;99.90
18690;DHT22;9782;52.930;15.562;2022-10-16T08:23:58;25.70;1.00
18690;DHT22;9782;52.930;15.562;2022-10-16T08:26:37;26.30;99.90
18690;DHT22;9782;52.930;15.562;2022-10-16T08:29:04;26.80;99.90
18690;DHT22;9782;52.930;15.562;2022-10-16T08:31:36;26.60;1.00
18690;DHT22;9782;52.930;15.562;2022-10-16T08:34:06;26.70;1.00
18690;DHT22;9782;52.930;15.562;2022-10-16T08:36:36;27.00;1.00
18690;DHT22;9782;52.930;15.562;2022-10-16T08:39:20;27.40;1.00
18690;DHT22;9782;52.930;15.562;2022-10-16T08:42:18;27.60;1.00
18690;DHT22;9782;52.930;15.562;2022-10-16T08:45:24;27.90;1.00
18690;DHT22;9782;52.930;15.562;2022-10-16T08:48:06;28.30;1.00
18690;DHT22;9782;52.930;15.562;2022-10-16T08:50:38;28.40;1.00
18690;DHT22;9782;52.930;15.562;2022-10-16T08:53:07;28.00;1.00
18690;DHT22;9782;52.930;15.562;2022-10-16T08:55:45;27.20;1.00
18690;DHT22;9782;52.930;15.562;2022-10-16T08:58:20;26.40;1.00
18690;DHT22;9782;52.930;15.562;2022-10-16T09:00:54;25.70;1.00
18690;DHT22;9782;52.930;15.562;2022-10-16T09:06:26;24.70;1.00
18690;DHT22;9782;52.930;15.562;2022-10-16T09:09:09;24.60;1.00
18690;DHT22;9782;52.930;15.562;2022-10-16T09:11:45;24.70;1.00
18690;DHT22;9782;52.930;15.562;2022-10-16T09:14:29;25.10;1.00
18690;DHT22;9782;52.930;15.562;2022-10-16T09:17:14;25.60;1.00
18690;DHT22;9782;52.930;15.562;2022-10-16T09:19:48;25.90;1.00
18690;DHT22;9782;52.930;15.562;2022-10-16T09:22:20;25.80;1.00
18690;DHT22;9782;52.930;15.562;2022-10-16T09:25:10;25.90;1.00
18690;DHT22;9782;52.930;15.562;2022-10-16T09:27:47;25.90;1.00
18690;DHT22;9782;52.930;15.562;2022-10-16T09:30:18;25.90;1.00
18690;DHT22;9782;52.930;15.562;2022-10-16T09:32:48;25.60;1.00
18690;DHT22;9782;52.930;15.562;2022-10-16T09:35:33;25.40;1.00
18690;DHT22;9782;52.930;15.562;2022-10-16T09:38:04;25.00;1.00
18690;DHT22;9782;52.930;15.562;2022-10-16T09:40:34;24.60;1.00
18690;DHT22;9782;52.930;15.562;2022-10-16T09:43:10;24.20;1.00
18690;DHT22;9782;52.930;15.562;2022-10-16T09:45:42;23.80;1.00
18690;DHT22;9782;52.930;15.562;2022-10-16T09:48:10;23.50;1.00
18690;DHT22;9782;52.930;15.562;2022-10-16T09:50:39;23.20;1.00
18690;DHT22;9782;52.930;15.562;2022-10-16T09:53:12;23.00;1.00
18690;DHT22;9782;52.930;15.562;2022-10-16T09:58:51;22.50;1.00
18690;DHT22;9782;52.930;15.562;2022-10-16T10:01:53;22.30;1.00
18690;DHT22;9782;52.930;15.562;2022-10-16T10:04:26;22.10;1.00
18690;DHT22;9782;52.930;15.562;2022-10-16T10:07:04;21.90;1.00
18690;DHT22;9782;52.930;15.562;2022-10-16T10:09:34;21.80;1.00
18690;DHT22;9782;52.930;15.562;2022-10-16T10:12:04;21.80;1.00
18690;DHT22;9782;52.930;15.562;2022-10-16T10:14:32;21.60;1.00
18690;DHT22;9782;52.930;15.562;2022-10-16T10:17:14;21.50;1.00
18690;DHT22;9782;52.930;15.562;2022-10-16T10:19:44;21.40;1.00
18690;DHT22;9782;52.930;15.562;2022-10-16T10:22:39;21.20;1.00
18690;DHT22;9782;52.930;15.562;2022-10-16T10:25:19;21.10;1.00
18690;DHT22;9782;52.930;15.562;2022-10-16T10:27:58;21.10;1.00
18690;DHT22;9782;52.930;15.562;2022-10-16T10:30:37;21.00;1.00
18690;DHT22;9782;52.930;15.562;2022-10-16T10:33:24;20.90;1.00
18690;DHT22;9782;52.930;15.562;2022-10-16T10:35:59;20.90;1.00
18690;DHT22;9782;52.930;15.562;2022-10-16T10:38:38;21.00;1.00
18690;DHT22;9782;52.930;15.562;2022-10-16T10:44:11;21.00;1.00
18690;DHT22;9782;52.930;15.562;2022-10-16T10:46:49;21.00;1.00
18690;DHT22;9782;52.930;15.562;2022-10-16T10:49:31;21.00;1.00
18690;DHT22;9782;52.930;15.562;2022-10-16T10:52:11;21.00;1.00
18690;DHT22;9782;52.930;15.562;2022-10-16T10:54:45;21.00;1.00
18690;DHT22;9782;52.930;15.562;2022-10-16T10:57:22;21.00;1.00
18690;DHT22;9782;52.930;15.562;2022-10-16T11:00:09;20.90;1.00
18690;DHT22;9782;52.930;15.562;2022-10-16T11:02:48;20.90;1.00
18690;DHT22;9782;52.930;15.562;2022-10-16T11:05:31;20.80;1.00
18690;DHT22;9782;52.930;15.562;2022-10-16T11:08:02;20.70;1.00
18690;DHT22;9782;52.930;15.562;2022-10-16T11:10:48;20.80;1.00
18690;DHT22;9782;52.930;15.562;2022-10-16T11:13:26;20.90;1.00
18690;DHT22;9782;52.930;15.562;2022-10-16T11:15:58;21.00;1.00
18690;DHT22;9782;52.930;15.562;2022-10-16T11:18:38;21.10;1.00
18690;DHT22;9782;52.930;15.562;2022-10-16T11:21:14;21.10;1.00
18690;DHT22;9782;52.930;15.562;2022-10-16T11:23:46;21.00;1.00
18690;DHT22;9782;52.930;15.562;2022-10-16T11:26:20;21.00;1.00
18690;DHT22;9782;52.930;15.562;2022-10-16T11:28:49;21.10;1.00
18690;DHT22;9782;52.930;15.562;2022-10-16T11:31:22;21.10;1.00
18690;DHT22;9782;52.930;15.562;2022-10-16T11:33:57;21.20;1.00
18690;DHT22;9782;52.930;15.562;2022-10-16T11:36:33;21.20;1.00
18690;DHT22;9782;52.930;15.562;2022-10-16T11:39:10;21.10;1.00
18690;DHT22;9782;52.930;15.562;2022-10-16T11:41:43;21.00;1.00
18690;DHT22;9782;52.930;15.562;2022-10-16T11:44:23;20.90;1.00
18690;DHT22;9782;52.930;15.562;2022-10-16T11:47:01;20.80;1.00
18690;DHT22;9782;52.930;15.562;2022-10-16T11:49:33;20.60;1.00
18690;DHT22;9782;52.930;15.562;2022-10-16T11:52:07;20.60;1.00
18690;DHT22;9782;52.930;15.562;2022-10-16T11:54:44;20.60;1.00
18690;DHT22;9782;52.930;15.562;2022-10-16T11:57:17;20.50;1.00
18690;DHT22;9782;52.930;15.562;2022-10-16T11:59:51;20.40;1.00
18690;DHT22;9782;52.930;15.562;2022-10-16T12:02:43;20.40;1.00
18690;DHT22;9782;52.930;15.562;2022-10-16T12:05:21;20.40;1.00
18690;DHT22;9782;52.930;15.562;2022-10-16T12:07:56;20.30;1.00
18690;DHT22;9782;52.930;15.562;2022-10-16T12:10:29;20.30;1.00
18690;DHT22;9782;52.930;15.562;2022-10-16T12:12:57;20.30;1.00
18690;DHT22;9782;52.930;15.562;2022-10-16T12:15:26;20.40;1.00
18690;DHT22;9782;52.930;15.562;2022-10-16T12:17:54;20.50;1.00
18690;DHT22;9782;52.930;15.562;2022-10-16T12:20:25;20.50;1.00
18690;DHT22;9782;52.930;15.562;2022-10-16T12:22:56;20.60;1.00
18690;DHT22;9782;52.930;15.562;2022-10-16T12:25:27;20.60;1.00
18690;DHT22;9782;52.930;15.562;2022-10-16T12:27:57;20.70;1.00
18690;DHT22;9782;52.930;15.562;2022-10-16T12:30:26;20.80;1.00
18690;DHT22;9782;52.930;15.562;2022-10-16T12:32:56;20.70;1.00
18690;DHT22;9782;52.930;15.562;2022-10-16T12:35:26;20.70;1.00
18690;DHT22;9782;52.930;15.562;2022-10-16T12:38:08;20.70;1.00
18690;DHT22;9782;52.930;15.562;2022-10-16T12:40:40;20.80;1.00
18690;DHT22;9782;52.930;15.562;2022-10-16T12:43:23;20.80;1.00
18690;DHT22;9782;52.930;15.562;2022-10-16T12:46:00;20.70;1.00
18690;DHT22;9782;52.930;15.562;2022-10-16T12:48:27;20.80;1.00
18690;DHT22;9782;52.930;15.562;2022-10-16T12:50:55;20.70;1.00
18690;DHT22;9782;52.930;15.562;2022-10-16T12:53:26;20.70;1.00
18690;DHT22;9782;52.930;15.562;2022-10-16T12:56:03;20.60;1.00
18690;DHT22;9782;52.930;15.562;2022-10-16T12:58:46;20.80;1.00
18690;DHT22;9782;52.930;15.562;2022-10-16T13:01:28;21.00;1.00
18690;DHT22;9782;52.930;15.562;2022-10-16T13:04:11;21.10;1.00
18690;DHT22;9782;52.930;15.562;2022-10-16T13:06:47;21.10;1.00
18690;DHT22;9782;52.930;15.562;2022-10-16T13:09:29;21.00;1.00
18690;DHT22;9782;52.930;15.562;2022-10-16T13:12:15;20.90;1.00
18690;DHT22;9782;52.930;15.562;2022-10-16T13:15:06;20.90;1.00
18690;DHT22;9782;52.930;15.562;2022-10-16T13:17:45;21.00;1.00
18690;DHT22;9782;52.930;15.562;2022-10-16T13:20:21;21.00;1.00
18690;DHT22;9782;52.930;15.562;2022-10-16T13:22:58;21.10;1.00
18690;DHT22;9782;52.930;15.562;2022-10-16T13:25:38;21.10;1.00
18690;DHT22;9782;52.930;15.562;2022-10-16T13:28:08;21.10;1.00
18690;DHT22;9782;52.930;15.562;2022-10-16T13:30:39;21.10;1.00
18690;DHT22;9782;52.930;15.562;2022-10-16T13:33:12;21.00;1.00
18690;DHT22;9782;52.930;15.562;2022-10-16T13:35:48;20.90;1.00
18690;DHT22;9782;52.930;15.562;2022-10-16T13:38:16;20.80;1.00
18690;DHT22;9782;52.930;15.562;2022-10-16T13:40:54;20.70;1.00
18690;DHT22;9782;52.930;15.562;2022-10-16T13:43:25;20.70;1.00
18690;DHT22;9782;52.930;15.562;2022-10-16T13:45:54;20.80;1.00
18690;DHT22;9782;52.930;15.562;2022-10-16T13:48:21;20.80;1.00
18690;DHT22;9782;52.930;15.562;2022-10-16T13:50:59;20.80;1.00
18690;DHT22;9782;52.930;15.562;2022-10-16T13:53:27;20.80;1.00
18690;DHT22;9782;52.930;15.562;2022-10-16T13:55:58;20.70;1.00
18690;DHT22;9782;52.930;15.562;2022-10-16T13:58:26;20.60;1.00
18690;DHT22;9782;52.930;15.562;2022-10-16T14:00:58;20.50;1.00
18690;DHT22;9782;52.930;15.562;2022-10-16T14:03:26;20.40;1.00
18690;DHT22;9782;52.930;15.562;2022-10-16T14:05:55;20.30;1.00
18690;DHT22;9782;52.930;15.562;2022-10-16T14:08:25;20.30;1.00
18690;DHT22;9782;52.930;15.562;2022-10-16T14:10:54;20.20;1.00
18690;DHT22;9782;52.930;15.562;2022-10-16T14:13:29;20.10;1.00
18690;DHT22;9782;52.930;15.562;2022-10-16T14:16:06;20.00;1.00
18690;DHT22;9782;52.930;15.562;2022-10-16T14:18:35;19.90;1.00
18690;DHT22;9782;52.930;15.562;2022-10-16T14:21:15;19.80;1.00
18690;DHT22;9782;52.930;15.562;2022-10-16T14:23:46;19.80;1.00
18690;DHT22;9782;52.930;15.562;2022-10-16T14:26:19;19.70;1.00
18690;DHT22;9782;52.930;15.562;2022-10-16T14:29:08;19.60;1.00
18690;DHT22;9782;52.930;15.562;2022-10-16T14:31:40;19.50;1.00
18690;DHT22;9782;52.930;15.562;2022-10-16T14:34:31;19.50;1.00
18690;DHT22;9782;52.930;15.562;2022-10-16T14:37:08;19.50;1.00
18690;DHT22;9782;52.930;15.562;2022-10-16T14:39:42;19.40;1.00
18690;DHT22;9782;52.930;15.562;2022-10-16T14:42:20;19.40;1.00
18690;DHT22;9782;52.930;15.562;2022-10-16T14:44:54;19.30;1.00
18690;DHT22;9782;52.930;15.562;2022-10-16T14:47:25;19.20;1.00
18690;DHT22;9782;52.930;15.562;2022-10-16T14:49:55;19.20;1.00
18690;DHT22;9782;52.930;15.562;2022-10-16T14:52:25;19.20;1.00
18690;DHT22;9782;52.930;15.562;2022-10-16T14:54:58;19.10;1.00
18690;DHT22;9782;52.930;15.562;2022-10-16T14:57:47;19.00;1.00
18690;DHT22;9782;52.930;15.562;2022-10-16T15:00:28;18.90;1.00
18690;DHT22;9782;52.930;15.562;2022-10-16T15:02:56;18.90;1.00
18690;DHT22;9782;52.930;15.562;2022-10-16T15:05:32;18.80;1.00
18690;DHT22;9782;52.930;15.562;2022-10-16T15:08:00;18.70;1.00
18690;DHT22;9782;52.930;15.562;2022-10-16T15:10:28;18.60;1.00
18690;DHT22;9782;52.930;15.562;2022-10-16T15:12:56;18.60;1.00
18690;DHT22;9782;52.930;15.562;2022-10-16T15:15:39;18.50;1.00
18690;DHT22;9782;52.930;15.562;2022-10-16T15:18:08;18.50;1.00
18690;DHT22;9782;52.930;15.562;2022-10-16T15:20:37;18.40;1.00
18690;DHT22;9782;52.930;15.562;2022-10-16T15:23:05;18.30;1.00
18690;DHT22;9782;52.930;15.562;2022-10-16T15:25:35;18.20;1.00
18690;DHT22;9782;52.930;15.562;2022-10-16T15:28:03;18.10;1.00
18690;DHT22;9782;52.930;15.562;2022-10-16T15:30:31;18.10;1.00
18690;DHT22;9782;52.930;15.562;2022-10-16T15:33:00;18.00;1.00
18690;DHT22;9782;52.930;15.562;2022-10-16T15:35:27;17.90;1.00
18690;DHT22;9782;52.930;15.562;2022-10-16T15:37:54;17.90;1.00
18690;DHT22;9782;52.930;15.562;2022-10-16T15:40:22;17.80;1.00
18690;DHT22;9782;52.930;15.562;2022-10-16T15:42:49;17.60;1.00
18690;DHT22;9782;52.930;15.562;2022-10-16T15:45:17;17.60;1.00
18690;DHT22;9782;52.930;15.562;2022-10-16T15:47:44;17.50;1.00
18690;DHT22;9782;52.930;15.562;2022-10-16T15:50:14;17.40;1.00
18690;DHT22;9782;52.930;15.562;2022-10-16T15:52:41;17.30;1.00
18690;DHT22;9782;52.930;15.562;2022-10-16T15:55:10;17.20;1.00
18690;DHT22;9782;52.930;15.562;2022-10-16T15:57:38;17.00;1.00
18690;DHT22;9782;52.930;15.562;2022-10-16T16:00:08;16.90;1.00
18690;DHT22;9782;52.930;15.562;2022-10-16T16:02:35;16.80;1.00
18690;DHT22;9782;52.930;15.562;2022-10-16T16:05:02;16.70;1.00
18690;DHT22;9782;52.930;15.562;2022-10-16T16:07:34;16.60;1.00
18690;DHT22;9782;52.930;15.562;2022-10-16T16:10:02;16.50;1.00
18690;DHT22;9782;52.930;15.562;2022-10-16T16:12:29;16.40;1.00
18690;DHT22;9782;52.930;15.562;2022-10-16T16:14:56;16.30;1.00
18690;DHT22;9782;52.930;15.562;2022-10-16T16:17:23;16.20;1.00
18690;DHT22;9782;52.930;15.562;2022-10-16T16:19:50;16.10;1.00
18690;DHT22;9782;52.930;15.562;2022-10-16T16:22:17;15.90;1.00
18690;DHT22;9782;52.930;15.562;2022-10-16T16:24:45;15.90;1.00
18690;DHT22;9782;52.930;15.562;2022-10-16T16:27:12;15.80;1.00
18690;DHT22;9782;52.930;15.562;2022-10-16T16:29:39;15.70;1.00
18690;DHT22;9782;52.930;15.562;2022-10-16T16:32:06;15.60;1.00
18690;DHT22;9782;52.930;15.562;2022-10-16T16:34:32;15.60;1.00
18690;DHT22;9782;52.930;15.562;2022-10-16T16:36:59;15.50;1.00